sensor_id;sensor_type;location;lat;lon;timestamp;pressure;altitude;pressure_sealevel;temperature;humidity
49709;BME280;35601;55.902;13.606;2024-03-08T00:01:01;101895.63;;;-5.35;59.60
49709;BME280;35601;55.902;13.606;2024-03-08T00:03:26;101898.05;;;-5.21;59.72
49709;BME280;35601;55.902;13.606;2024-03-08T00:05:52;101897.48;;;-5.25;59.98
49709;BME280;35601;55.902;13.606;2024-03-08T00:08:18;101895.21;;;-5.28;60.28
49709;BME280;35601;55.902;13.606;2024-03-08T00:10:43;101898.96;;;-5.53;60.41
49709;BME280;35601;55.902;13.606;2024-03-08T00:13:09;101897.55;;;-5.52;60.45
49709;BME280;35601;55.902;13.606;2024-03-08T00:15:34;101897.92;;;-5.32;60.54
49709;BME280;35601;55.902;13.606;2024-03-08T00:18:00;101894.35;;;-4.91;60.69
49709;BME280;35601;55.902;13.606;2024-03-08T00:20:25;101895.41;;;-5.43;60.87
49709;BME280;35601;55.902;13.606;2024-03-08T00:22:51;101893.51;;;-5.60;61.46
49709;BME280;35601;55.902;13.606;2024-03-08T00:25:16;101892.21;;;-5.53;61.47
49709;BME280;35601;55.902;13.606;2024-03-08T00:27:42;101888.04;;;-5.52;61.49
49709;BME280;35601;55.902;13.606;2024-03-08T00:30:08;101886.95;;;-5.16;61.08
49709;BME280;35601;55.902;13.606;2024-03-08T00:32:33;101885.36;;;-5.38;60.49
49709;BME280;35601;55.902;13.606;2024-03-08T00:34:59;101883.78;;;-5.41;59.86
49709;BME280;35601;55.902;13.606;2024-03-08T00:37:24;101883.73;;;-5.43;59.42
49709;BME280;35601;55.902;13.606;2024-03-08T00:39:50;101884.26;;;-5.45;59.21
49709;BME280;35601;55.902;13.606;2024-03-08T00:42:15;101882.92;;;-5.50;58.93
49709;BME280;35601;55.902;13.606;2024-03-08T00:44:40;101881.15;;;-5.56;58.78
49709;BME280;35601;55.902;13.606;2024-03-08T00:47:06;101881.99;;;-5.69;59.23
49709;BME280;35601;55.902;13.606;2024-03-08T00:49:31;101880.31;;;-5.70;59.43
49709;BME280;35601;55.902;13.606;2024-03-08T00:51:57;101879.44;;;-5.73;59.42
49709;BME280;35601;55.902;13.606;2024-03-08T00:54:22;101879.43;;;-5.77;59.32
49709;BME280;35601;55.902;13.606;2024-03-08T00:56:48;101880.92;;;-5.79;59.33
49709;BME280;35601;55.902;13.606;2024-03-08T00:59:13;101877.25;;;-5.65;59.72
49709;BME280;35601;55.902;13.606;2024-03-08T01:01:39;101875.11;;;-5.93;60.21
49709;BME280;35601;55.902;13.606;2024-03-08T01:04:04;101874.38;;;-5.73;60.55
49709;BME280;35601;55.902;13.606;2024-03-08T01:06:30;101875.21;;;-6.17;60.92
49709;BME280;35601;55.902;13.606;2024-03-08T01:08:55;101873.43;;;-5.84;61.34
49709;BME280;35601;55.902;13.606;2024-03-08T01:11:21;101871.15;;;-5.94;61.50
49709;BME280;35601;55.902;13.606;2024-03-08T01:13:46;101870.48;;;-5.57;60.96
49709;BME280;35601;55.902;13.606;2024-03-08T01:16:11;101866.91;;;-5.79;60.72
49709;BME280;35601;55.902;13.606;2024-03-08T01:18:37;101866.58;;;-5.76;60.51
49709;BME280;35601;55.902;13.606;2024-03-08T01:21:03;101864.39;;;-6.04;60.38
49709;BME280;35601;55.902;13.606;2024-03-08T01:23:28;101862.21;;;-5.54;60.36
49709;BME280;35601;55.902;13.606;2024-03-08T01:25:53;101860.00;;;-5.61;60.41
49709;BME280;35601;55.902;13.606;2024-03-08T01:28:19;101857.89;;;-5.91;60.74
49709;BME280;35601;55.902;13.606;2024-03-08T01:30:44;101855.87;;;-6.05;60.52
49709;BME280;35601;55.902;13.606;2024-03-08T01:33:10;101849.17;;;-5.53;60.17
49709;BME280;35601;55.902;13.606;2024-03-08T01:35:35;101847.21;;;-6.07;60.06
49709;BME280;35601;55.902;13.606;2024-03-08T01:38:01;101843.70;;;-5.87;60.13
49709;BME280;35601;55.902;13.606;2024-03-08T01:40:26;101844.74;;;-6.15;60.17
49709;BME280;35601;55.902;13.606;2024-03-08T01:42:51;101840.92;;;-6.09;60.14
49709;BME280;35601;55.902;13.606;2024-03-08T01:45:17;101840.25;;;-5.60;60.12
49709;BME280;35601;55.902;13.606;2024-03-08T01:47:42;101838.62;;;-5.87;60.04
49709;BME280;35601;55.902;13.606;2024-03-08T01:50:08;101837.32;;;-5.88;60.09
49709;BME280;35601;55.902;13.606;2024-03-08T01:52:33;101836.96;;;-6.14;60.04
49709;BME280;35601;55.902;13.606;2024-03-08T01:54:59;101834.59;;;-5.65;59.86
49709;BME280;35601;55.902;13.606;2024-03-08T01:57:23;101829.49;;;-5.86;59.66
49709;BME280;35601;55.902;13.606;2024-03-08T01:59:49;101829.57;;;-5.87;59.50
49709;BME280;35601;55.902;13.606;2024-03-08T02:02:16;101826.06;;;-6.17;58.80
49709;BME280;35601;55.902;13.606;2024-03-08T02:04:40;101824.25;;;-6.03;58.94
49709;BME280;35601;55.902;13.606;2024-03-08T02:07:05;101819.71;;;-6.09;58.93
49709;BME280;35601;55.902;13.606;2024-03-08T02:09:31;101816.69;;;-6.07;58.95
49709;BME280;35601;55.902;13.606;2024-03-08T02:11:57;101811.05;;;-5.92;59.17
49709;BME280;35601;55.902;13.606;2024-03-08T02:14:22;101813.86;;;-5.87;59.14
49709;BME280;35601;55.902;13.606;2024-03-08T02:16:47;101811.86;;;-6.10;58.88
49709;BME280;35601;55.902;13.606;2024-03-08T02:19:13;101810.51;;;-5.89;58.47
49709;BME280;35601;55.902;13.606;2024-03-08T02:21:38;101810.89;;;-6.00;58.23
49709;BME280;35601;55.902;13.606;2024-03-08T02:24:04;101807.09;;;-6.33;58.80
49709;BME280;35601;55.902;13.606;2024-03-08T02:26:28;101805.33;;;-6.11;59.25
49709;BME280;35601;55.902;13.606;2024-03-08T02:28:54;101802.66;;;-6.11;59.38
49709;BME280;35601;55.902;13.606;2024-03-08T02:31:19;101799.15;;;-6.21;59.79
49709;BME280;35601;55.902;13.606;2024-03-08T02:33:45;101799.79;;;-6.32;60.18
49709;BME280;35601;55.902;13.606;2024-03-08T02:36:10;101797.42;;;-6.24;60.20
49709;BME280;35601;55.902;13.606;2024-03-08T02:38:36;101798.03;;;-6.13;59.56
49709;BME280;35601;55.902;13.606;2024-03-08T02:41:01;101793.42;;;-6.22;59.20
49709;BME280;35601;55.902;13.606;2024-03-08T02:43:27;101792.65;;;-6.21;59.17
49709;BME280;35601;55.902;13.606;2024-03-08T02:45:52;101788.32;;;-6.26;59.11
49709;BME280;35601;55.902;13.606;2024-03-08T02:48:18;101788.87;;;-6.57;59.22
49709;BME280;35601;55.902;13.606;2024-03-08T02:50:43;101785.65;;;-6.54;59.27
49709;BME280;35601;55.902;13.606;2024-03-08T02:53:08;101780.61;;;-6.57;59.24
49709;BME280;35601;55.902;13.606;2024-03-08T02:55:34;101778.55;;;-6.29;59.31
49709;BME280;35601;55.902;13.606;2024-03-08T02:57:59;101773.24;;;-6.28;59.09
49709;BME280;35601;55.902;13.606;2024-03-08T03:00:25;101772.32;;;-6.55;58.82
49709;BME280;35601;55.902;13.606;2024-03-08T03:02:50;101769.86;;;-6.61;58.93
49709;BME280;35601;55.902;13.606;2024-03-08T03:05:16;101766.44;;;-6.39;58.89
49709;BME280;35601;55.902;13.606;2024-03-08T03:07:41;101763.64;;;-6.41;58.89
49709;BME280;35601;55.902;13.606;2024-03-08T03:10:07;101762.31;;;-6.26;59.03
49709;BME280;35601;55.902;13.606;2024-03-08T03:12:32;101762.93;;;-6.47;59.08
49709;BME280;35601;55.902;13.606;2024-03-08T03:14:57;101762.19;;;-6.45;59.09
49709;BME280;35601;55.902;13.606;2024-03-08T03:17:23;101763.13;;;-6.50;58.99
49709;BME280;35601;55.902;13.606;2024-03-08T03:19:48;101762.93;;;-6.51;58.90
49709;BME280;35601;55.902;13.606;2024-03-08T03:22:13;101761.98;;;-6.49;58.70
49709;BME280;35601;55.902;13.606;2024-03-08T03:24:38;101757.98;;;-6.49;58.65
49709;BME280;35601;55.902;13.606;2024-03-08T03:27:04;101753.94;;;-6.55;58.80
49709;BME280;35601;55.902;13.606;2024-03-08T03:29:29;101752.10;;;-6.28;58.40
49709;BME280;35601;55.902;13.606;2024-03-08T03:31:54;101753.18;;;-6.59;57.91
49709;BME280;35601;55.902;13.606;2024-03-08T03:34:20;101753.99;;;-6.65;58.10
49709;BME280;35601;55.902;13.606;2024-03-08T03:36:45;101753.35;;;-6.69;58.31
49709;BME280;35601;55.902;13.606;2024-03-08T03:39:11;101749.02;;;-6.53;58.45
49709;BME280;35601;55.902;13.606;2024-03-08T03:41:36;101748.10;;;-6.98;59.02
49709;BME280;35601;55.902;13.606;2024-03-08T03:44:02;101748.39;;;-6.92;59.38
49709;BME280;35601;55.902;13.606;2024-03-08T03:46:27;101749.83;;;-6.88;59.41
49709;BME280;35601;55.902;13.606;2024-03-08T03:48:52;101748.26;;;-6.87;59.41
49709;BME280;35601;55.902;13.606;2024-03-08T03:51:18;101742.83;;;-6.69;59.26
49709;BME280;35601;55.902;13.606;2024-03-08T03:53:43;101742.42;;;-6.85;59.16
49709;BME280;35601;55.902;13.606;2024-03-08T03:56:09;101742.86;;;-6.62;58.87
49709;BME280;35601;55.902;13.606;2024-03-08T03:58:34;101741.33;;;-6.89;58.99
49709;BME280;35601;55.902;13.606;2024-03-08T04:01:00;101737.53;;;-6.72;59.22
49709;BME280;35601;55.902;13.606;2024-03-08T04:03:25;101739.54;;;-6.90;59.20
49709;BME280;35601;55.902;13.606;2024-03-08T04:05:50;101742.15;;;-6.90;59.20
49709;BME280;35601;55.902;13.606;2024-03-08T04:08:16;101739.28;;;-6.87;58.83
49709;BME280;35601;55.902;13.606;2024-03-08T04:10:41;101735.45;;;-6.89;58.47
49709;BME280;35601;55.902;13.606;2024-03-08T04:13:07;101733.98;;;-7.03;58.59
49709;BME280;35601;55.902;13.606;2024-03-08T04:15:32;101732.90;;;-7.11;58.99
49709;BME280;35601;55.902;13.606;2024-03-08T04:17:58;101736.94;;;-6.85;59.18
49709;BME280;35601;55.902;13.606;2024-03-08T04:20:23;101733.38;;;-6.87;59.26
49709;BME280;35601;55.902;13.606;2024-03-08T04:22:49;101730.55;;;-6.89;59.36
49709;BME280;35601;55.902;13.606;2024-03-08T04:25:14;101727.09;;;-6.88;59.43
49709;BME280;35601;55.902;13.606;2024-03-08T04:27:40;101728.54;;;-6.81;59.40
49709;BME280;35601;55.902;13.606;2024-03-08T04:30:07;101727.88;;;-6.80;59.15
49709;BME280;35601;55.902;13.606;2024-03-08T04:32:31;101727.35;;;-6.64;59.16
49709;BME280;35601;55.902;13.606;2024-03-08T04:34:56;101726.29;;;-6.67;58.16
49709;BME280;35601;55.902;13.606;2024-03-08T04:37:22;101723.81;;;-6.98;57.63
49709;BME280;35601;55.902;13.606;2024-03-08T04:39:47;101720.08;;;-7.08;57.57
49709;BME280;35601;55.902;13.606;2024-03-08T04:42:13;101716.22;;;-7.37;58.22
49709;BME280;35601;55.902;13.606;2024-03-08T04:44:38;101716.91;;;-7.11;58.24
49709;BME280;35601;55.902;13.606;2024-03-08T04:47:04;101712.91;;;-7.13;58.43
49709;BME280;35601;55.902;13.606;2024-03-08T04:49:29;101712.20;;;-6.90;58.59
49709;BME280;35601;55.902;13.606;2024-03-08T04:51:55;101710.28;;;-6.88;58.67
49709;BME280;35601;55.902;13.606;2024-03-08T04:54:20;101710.77;;;-7.12;58.72
49709;BME280;35601;55.902;13.606;2024-03-08T04:56:45;101710.96;;;-7.16;58.68
49709;BME280;35601;55.902;13.606;2024-03-08T04:59:11;101710.20;;;-7.13;58.40
49709;BME280;35601;55.902;13.606;2024-03-08T05:01:37;101708.41;;;-7.16;58.10
49709;BME280;35601;55.902;13.606;2024-03-08T05:04:02;101707.69;;;-6.97;58.18
49709;BME280;35601;55.902;13.606;2024-03-08T05:06:28;101705.85;;;-7.64;58.69
49709;BME280;35601;55.902;13.606;2024-03-08T05:08:53;101705.15;;;-7.13;58.87
49709;BME280;35601;55.902;13.606;2024-03-08T05:11:18;101701.71;;;-7.39;59.06
49709;BME280;35601;55.902;13.606;2024-03-08T05:13:44;101704.57;;;-7.64;59.29
49709;BME280;35601;55.902;13.606;2024-03-08T05:16:09;101702.95;;;-7.48;59.80
49709;BME280;35601;55.902;13.606;2024-03-08T05:18:35;101703.30;;;-7.79;60.17
49709;BME280;35601;55.902;13.606;2024-03-08T05:21:00;101702.05;;;-7.87;60.84
49709;BME280;35601;55.902;13.606;2024-03-08T05:23:25;101698.44;;;-7.96;61.25
49709;BME280;35601;55.902;13.606;2024-03-08T05:25:51;101697.23;;;-7.78;61.51
49709;BME280;35601;55.902;13.606;2024-03-08T05:28:17;101698.00;;;-7.68;61.22
49709;BME280;35601;55.902;13.606;2024-03-08T05:30:42;101699.65;;;-7.52;60.98
49709;BME280;35601;55.902;13.606;2024-03-08T05:33:08;101699.16;;;-7.21;60.72
49709;BME280;35601;55.902;13.606;2024-03-08T05:35:33;101697.08;;;-7.39;60.67
49709;BME280;35601;55.902;13.606;2024-03-08T05:37:58;101693.31;;;-7.31;60.32
49709;BME280;35601;55.902;13.606;2024-03-08T05:40:24;101694.31;;;-7.32;59.98
49709;BME280;35601;55.902;13.606;2024-03-08T05:42:50;101694.22;;;-7.73;59.94
49709;BME280;35601;55.902;13.606;2024-03-08T05:45:15;101693.17;;;-7.47;59.89
49709;BME280;35601;55.902;13.606;2024-03-08T05:47:40;101689.80;;;-7.44;59.87
49709;BME280;35601;55.902;13.606;2024-03-08T05:50:07;101686.35;;;-7.42;59.67
49709;BME280;35601;55.902;13.606;2024-03-08T05:52:31;101684.24;;;-7.16;59.39
49709;BME280;35601;55.902;13.606;2024-03-08T05:54:57;101684.03;;;-7.10;59.24
49709;BME280;35601;55.902;13.606;2024-03-08T05:57:22;101679.77;;;-7.56;59.55
49709;BME280;35601;55.902;13.606;2024-03-08T05:59:47;101679.87;;;-7.29;59.91
49709;BME280;35601;55.902;13.606;2024-03-08T06:02:13;101682.43;;;-7.53;59.79
49709;BME280;35601;55.902;13.606;2024-03-08T06:04:38;101684.78;;;-7.16;59.61
49709;BME280;35601;55.902;13.606;2024-03-08T06:07:04;101683.84;;;-7.33;59.31
49709;BME280;35601;55.902;13.606;2024-03-08T06:09:29;101682.01;;;-7.16;59.73
49709;BME280;35601;55.902;13.606;2024-03-08T06:11:55;101682.64;;;-7.18;60.57
49709;BME280;35601;55.902;13.606;2024-03-08T06:14:20;101680.06;;;-7.34;61.08
49709;BME280;35601;55.902;13.606;2024-03-08T06:16:45;101681.38;;;-7.36;61.65
49709;BME280;35601;55.902;13.606;2024-03-08T06:19:11;101682.03;;;-7.17;61.32
49709;BME280;35601;55.902;13.606;2024-03-08T06:21:37;101684.68;;;-7.08;61.48
49709;BME280;35601;55.902;13.606;2024-03-08T06:24:03;101684.02;;;-7.18;60.96
49709;BME280;35601;55.902;13.606;2024-03-08T06:26:28;101684.94;;;-7.00;60.75
49709;BME280;35601;55.902;13.606;2024-03-08T06:28:54;101687.50;;;-6.89;60.55
49709;BME280;35601;55.902;13.606;2024-03-08T06:31:19;101689.06;;;-6.75;60.58
49709;BME280;35601;55.902;13.606;2024-03-08T06:33:45;101685.81;;;-6.85;60.66
49709;BME280;35601;55.902;13.606;2024-03-08T06:36:10;101685.54;;;-6.22;60.58
49709;BME280;35601;55.902;13.606;2024-03-08T06:38:35;101688.48;;;-6.29;60.52
49709;BME280;35601;55.902;13.606;2024-03-08T06:41:01;101690.30;;;-6.65;60.85
49709;BME280;35601;55.902;13.606;2024-03-08T06:43:26;101686.98;;;-6.30;61.53
49709;BME280;35601;55.902;13.606;2024-03-08T06:45:52;101691.54;;;-6.00;61.66
49709;BME280;35601;55.902;13.606;2024-03-08T06:48:17;101691.70;;;-5.91;61.68
49709;BME280;35601;55.902;13.606;2024-03-08T06:50:43;101689.75;;;-6.11;61.83
49709;BME280;35601;55.902;13.606;2024-03-08T06:53:08;101689.37;;;-5.92;61.89
49709;BME280;35601;55.902;13.606;2024-03-08T06:55:34;101689.81;;;-5.68;61.70
49709;BME280;35601;55.902;13.606;2024-03-08T06:58:00;101691.15;;;-5.45;61.41
49709;BME280;35601;55.902;13.606;2024-03-08T07:00:25;101690.86;;;-5.24;61.19
49709;BME280;35601;55.902;13.606;2024-03-08T07:02:50;101692.11;;;-5.07;61.01
49709;BME280;35601;55.902;13.606;2024-03-08T07:05:17;101694.60;;;-6.75;60.97
49709;BME280;35601;55.902;13.606;2024-03-08T07:07:41;101695.25;;;-5.03;60.49
49709;BME280;35601;55.902;13.606;2024-03-08T07:10:08;101696.21;;;-4.70;60.90
49709;BME280;35601;55.902;13.606;2024-03-08T07:12:32;101701.09;;;-4.49;61.11
49709;BME280;35601;55.902;13.606;2024-03-08T07:14:58;101700.42;;;-4.52;60.77
49709;BME280;35601;55.902;13.606;2024-03-08T07:17:23;101699.11;;;-4.56;60.26
49709;BME280;35601;55.902;13.606;2024-03-08T07:19:49;101701.21;;;-4.62;60.42
49709;BME280;35601;55.902;13.606;2024-03-08T07:22:14;101699.25;;;-4.54;60.18
49709;BME280;35601;55.902;13.606;2024-03-08T07:24:40;101697.16;;;-4.26;60.89
49709;BME280;35601;55.902;13.606;2024-03-08T07:27:04;101693.06;;;-4.44;61.19
49709;BME280;35601;55.902;13.606;2024-03-08T07:29:29;101685.24;;;-4.11;60.92
49709;BME280;35601;55.902;13.606;2024-03-08T07:31:54;101683.96;;;-3.90;60.61
49709;BME280;35601;55.902;13.606;2024-03-08T07:34:20;101683.96;;;-3.68;60.54
49709;BME280;35601;55.902;13.606;2024-03-08T07:36:46;101679.74;;;-3.54;60.60
49709;BME280;35601;55.902;13.606;2024-03-08T07:39:11;101676.59;;;-3.84;60.49
49709;BME280;35601;55.902;13.606;2024-03-08T07:41:37;101673.21;;;-3.68;61.35
49709;BME280;35601;55.902;13.606;2024-03-08T07:44:02;101670.91;;;-4.08;62.18
49709;BME280;35601;55.902;13.606;2024-03-08T07:46:28;101668.25;;;-3.75;63.00
49709;BME280;35601;55.902;13.606;2024-03-08T07:48:53;101668.17;;;-3.54;63.28
49709;BME280;35601;55.902;13.606;2024-03-08T07:51:19;101666.95;;;-3.63;63.19
49709;BME280;35601;55.902;13.606;2024-03-08T07:53:44;101666.25;;;-3.21;62.53
49709;BME280;35601;55.902;13.606;2024-03-08T07:56:10;101664.11;;;-2.80;61.82
49709;BME280;35601;55.902;13.606;2024-03-08T07:58:35;101660.27;;;-2.53;59.84
49709;BME280;35601;55.902;13.606;2024-03-08T08:01:00;101654.83;;;-2.38;58.23
49709;BME280;35601;55.902;13.606;2024-03-08T08:03:25;101651.17;;;-2.03;57.42
49709;BME280;35601;55.902;13.606;2024-03-08T08:05:51;101651.71;;;-1.72;57.50
49709;BME280;35601;55.902;13.606;2024-03-08T08:08:17;101649.09;;;-1.57;57.37
49709;BME280;35601;55.902;13.606;2024-03-08T08:10:42;101650.07;;;-1.13;56.28
49709;BME280;35601;55.902;13.606;2024-03-08T08:13:07;101650.64;;;-1.11;55.11
49709;BME280;35601;55.902;13.606;2024-03-08T08:15:32;101648.59;;;-0.99;54.83
49709;BME280;35601;55.902;13.606;2024-03-08T08:17:58;101646.95;;;-0.66;54.08
49709;BME280;35601;55.902;13.606;2024-03-08T08:20:24;101652.19;;;-0.37;53.42
49709;BME280;35601;55.902;13.606;2024-03-08T08:22:49;101645.57;;;-0.05;53.10
49709;BME280;35601;55.902;13.606;2024-03-08T08:25:14;101644.94;;;-0.09;51.56
49709;BME280;35601;55.902;13.606;2024-03-08T08:27:39;101643.15;;;-0.05;51.23
49709;BME280;35601;55.902;13.606;2024-03-08T08:30:06;101644.58;;;-0.07;52.58
49709;BME280;35601;55.902;13.606;2024-03-08T08:32:30;101645.11;;;0.24;52.25
49709;BME280;35601;55.902;13.606;2024-03-08T08:34:55;101643.95;;;0.47;52.11
49709;BME280;35601;55.902;13.606;2024-03-08T08:37:20;101641.85;;;0.68;50.82
49709;BME280;35601;55.902;13.606;2024-03-08T08:39:46;101644.99;;;0.69;50.58
49709;BME280;35601;55.902;13.606;2024-03-08T08:42:12;101643.25;;;1.08;51.70
49709;BME280;35601;55.902;13.606;2024-03-08T08:44:37;101642.02;;;1.01;52.77
49709;BME280;35601;55.902;13.606;2024-03-08T08:47:02;101639.75;;;1.38;51.33
49709;BME280;35601;55.902;13.606;2024-03-08T08:49:28;101636.95;;;1.68;50.55
49709;BME280;35601;55.902;13.606;2024-03-08T08:51:53;101637.01;;;1.35;50.17
49709;BME280;35601;55.902;13.606;2024-03-08T08:54:19;101632.43;;;1.74;49.74
49709;BME280;35601;55.902;13.606;2024-03-08T08:56:44;101631.39;;;2.00;49.91
49709;BME280;35601;55.902;13.606;2024-03-08T08:59:10;101628.74;;;1.66;50.34
49709;BME280;35601;55.902;13.606;2024-03-08T09:01:35;101629.28;;;1.97;50.46
49709;BME280;35601;55.902;13.606;2024-03-08T09:04:00;101624.19;;;2.08;50.47
49709;BME280;35601;55.902;13.606;2024-03-08T09:06:25;101622.12;;;2.01;51.58
49709;BME280;35601;55.902;13.606;2024-03-08T09:08:51;101619.20;;;1.99;51.72
49709;BME280;35601;55.902;13.606;2024-03-08T09:11:16;101616.52;;;2.04;50.62
49709;BME280;35601;55.902;13.606;2024-03-08T09:13:44;101614.90;;;2.03;51.69
49709;BME280;35601;55.902;13.606;2024-03-08T09:16:07;101608.87;;;2.26;49.84
49709;BME280;35601;55.902;13.606;2024-03-08T09:18:32;101608.90;;;2.39;49.31
49709;BME280;35601;55.902;13.606;2024-03-08T09:20:57;101605.61;;;2.41;49.58
49709;BME280;35601;55.902;13.606;2024-03-08T09:23:23;101605.10;;;2.54;49.55
49709;BME280;35601;55.902;13.606;2024-03-08T09:25:48;101606.65;;;2.81;48.54
49709;BME280;35601;55.902;13.606;2024-03-08T09:28:14;101604.41;;;3.02;48.40
49709;BME280;35601;55.902;13.606;2024-03-08T09:30:39;101600.91;;;2.68;48.43
49709;BME280;35601;55.902;13.606;2024-03-08T09:33:05;101596.97;;;2.87;47.58
49709;BME280;35601;55.902;13.606;2024-03-08T09:35:30;101594.43;;;3.14;46.75
49709;BME280;35601;55.902;13.606;2024-03-08T09:37:55;101592.04;;;3.41;46.88
49709;BME280;35601;55.902;13.606;2024-03-08T09:40:20;101591.61;;;3.14;46.89
49709;BME280;35601;55.902;13.606;2024-03-08T09:42:46;101584.90;;;3.57;46.41
49709;BME280;35601;55.902;13.606;2024-03-08T09:45:12;101581.03;;;3.75;46.67
49709;BME280;35601;55.902;13.606;2024-03-08T09:47:36;101576.03;;;4.47;46.09
49709;BME280;35601;55.902;13.606;2024-03-08T09:50:01;101577.76;;;4.56;45.39
49709;BME280;35601;55.902;13.606;2024-03-08T09:52:27;101575.60;;;4.54;44.75
49709;BME280;35601;55.902;13.606;2024-03-08T09:54:52;101572.37;;;4.72;44.39
49709;BME280;35601;55.902;13.606;2024-03-08T09:57:18;101569.67;;;4.81;43.93
49709;BME280;35601;55.902;13.606;2024-03-08T09:59:43;101568.83;;;5.07;42.48
49709;BME280;35601;55.902;13.606;2024-03-08T10:02:13;101566.70;;;5.59;41.92
49709;BME280;35601;55.902;13.606;2024-03-08T10:04:33;101562.42;;;5.34;42.05
49709;BME280;35601;55.902;13.606;2024-03-08T10:07:00;101560.07;;;5.44;41.57
49709;BME280;35601;55.902;13.606;2024-03-08T10:09:24;101556.78;;;5.71;41.05
49709;BME280;35601;55.902;13.606;2024-03-08T10:11:49;101553.58;;;5.87;40.80
49709;BME280;35601;55.902;13.606;2024-03-08T10:14:15;101551.80;;;5.98;40.85
49709;BME280;35601;55.902;13.606;2024-03-08T10:16:40;101555.94;;;6.67;40.83
49709;BME280;35601;55.902;13.606;2024-03-08T10:19:05;101550.18;;;6.57;40.23
49709;BME280;35601;55.902;13.606;2024-03-08T10:21:32;101548.42;;;6.89;38.83
49709;BME280;35601;55.902;13.606;2024-03-08T10:23:56;101547.12;;;7.08;39.10
49709;BME280;35601;55.902;13.606;2024-03-08T10:26:22;101545.17;;;7.17;38.69
49709;BME280;35601;55.902;13.606;2024-03-08T10:28:48;101544.35;;;7.36;38.26
49709;BME280;35601;55.902;13.606;2024-03-08T10:31:12;101536.62;;;7.42;36.89
49709;BME280;35601;55.902;13.606;2024-03-08T10:33:37;101534.28;;;7.63;36.40
49709;BME280;35601;55.902;13.606;2024-03-08T10:36:03;101531.28;;;7.56;37.07
49709;BME280;35601;55.902;13.606;2024-03-08T10:38:31;101528.77;;;7.65;36.56
49709;BME280;35601;55.902;13.606;2024-03-08T10:40:53;101526.37;;;7.47;36.96
49709;BME280;35601;55.902;13.606;2024-03-08T10:43:23;101527.05;;;6.96;37.75
49709;BME280;35601;55.902;13.606;2024-03-08T10:45:46;101529.02;;;7.09;37.63
49709;BME280;35601;55.902;13.606;2024-03-08T10:48:20;101525.97;;;7.05;37.15
49709;BME280;35601;55.902;13.606;2024-03-08T10:50:36;101526.19;;;7.13;37.98
49709;BME280;35601;55.902;13.606;2024-03-08T10:53:01;101525.68;;;6.97;38.09
49709;BME280;35601;55.902;13.606;2024-03-08T10:55:25;101525.62;;;6.69;37.62
49709;BME280;35601;55.902;13.606;2024-03-08T10:57:51;101522.35;;;7.02;38.03
49709;BME280;35601;55.902;13.606;2024-03-08T11:00:16;101519.85;;;7.17;38.34
49709;BME280;35601;55.902;13.606;2024-03-08T11:02:43;101511.43;;;7.54;37.17
49709;BME280;35601;55.902;13.606;2024-03-08T11:05:10;101508.85;;;7.45;37.51
49709;BME280;35601;55.902;13.606;2024-03-08T11:07:33;101511.24;;;7.45;37.14
49709;BME280;35601;55.902;13.606;2024-03-08T11:09:57;101508.28;;;7.47;35.46
49709;BME280;35601;55.902;13.606;2024-03-08T11:12:24;101507.19;;;7.89;35.97
49709;BME280;35601;55.902;13.606;2024-03-08T11:14:49;101506.23;;;8.18;35.67
49709;BME280;35601;55.902;13.606;2024-03-08T11:17:13;101504.13;;;8.15;35.51
49709;BME280;35601;55.902;13.606;2024-03-08T11:19:38;101501.23;;;8.18;35.78
49709;BME280;35601;55.902;13.606;2024-03-08T11:22:03;101500.49;;;8.19;34.95
49709;BME280;35601;55.902;13.606;2024-03-08T11:24:37;101498.59;;;7.89;35.92
49709;BME280;35601;55.902;13.606;2024-03-08T11:26:57;101497.55;;;8.19;35.78
49709;BME280;35601;55.902;13.606;2024-03-08T11:29:33;101494.33;;;7.84;34.45
49709;BME280;35601;55.902;13.606;2024-03-08T11:31:45;101491.21;;;8.26;35.00
49709;BME280;35601;55.902;13.606;2024-03-08T11:34:15;101488.88;;;8.05;34.64
49709;BME280;35601;55.902;13.606;2024-03-08T11:36:35;101482.56;;;8.28;35.23
49709;BME280;35601;55.902;13.606;2024-03-08T11:39:01;101479.18;;;8.53;34.37
49709;BME280;35601;55.902;13.606;2024-03-08T11:41:26;101475.30;;;8.53;33.41
49709;BME280;35601;55.902;13.606;2024-03-08T11:44:02;101473.36;;;8.63;33.60
49709;BME280;35601;55.902;13.606;2024-03-08T11:46:17;101472.02;;;9.25;32.67
49709;BME280;35601;55.902;13.606;2024-03-08T11:48:42;101467.51;;;9.28;32.90
49709;BME280;35601;55.902;13.606;2024-03-08T11:51:07;101467.85;;;9.27;31.42
49709;BME280;35601;55.902;13.606;2024-03-08T11:53:32;101463.84;;;9.37;31.85
49709;BME280;35601;55.902;13.606;2024-03-08T11:56:06;101463.19;;;9.31;31.81
49709;BME280;35601;55.902;13.606;2024-03-08T11:58:22;101460.98;;;9.21;32.67
49709;BME280;35601;55.902;13.606;2024-03-08T12:00:47;101456.33;;;9.07;33.79
49709;BME280;35601;55.902;13.606;2024-03-08T12:03:13;101455.95;;;9.37;32.04
49709;BME280;35601;55.902;13.606;2024-03-08T12:05:38;101454.58;;;9.31;30.89
49709;BME280;35601;55.902;13.606;2024-03-08T12:08:03;101451.47;;;9.34;32.26
49709;BME280;35601;55.902;13.606;2024-03-08T12:10:28;101446.44;;;9.20;32.71
49709;BME280;35601;55.902;13.606;2024-03-08T12:12:55;101444.74;;;8.80;32.13
49709;BME280;35601;55.902;13.606;2024-03-08T12:15:20;101443.11;;;8.82;32.68
49709;BME280;35601;55.902;13.606;2024-03-08T12:17:44;101437.96;;;9.11;32.80
49709;BME280;35601;55.902;13.606;2024-03-08T12:20:14;101436.51;;;9.03;31.80
49709;BME280;35601;55.902;13.606;2024-03-08T12:22:34;101428.64;;;9.39;30.50
49709;BME280;35601;55.902;13.606;2024-03-08T12:25:04;101429.18;;;9.44;30.15
49709;BME280;35601;55.902;13.606;2024-03-08T12:27:26;101427.08;;;9.67;29.65
49709;BME280;35601;55.902;13.606;2024-03-08T12:29:50;101422.98;;;9.54;28.94
49709;BME280;35601;55.902;13.606;2024-03-08T12:32:15;101421.81;;;9.78;30.22